createdAt,value
2018-02-27T00:01:41.795Z,24.92
2018-02-27T00:04:09.293Z,26.12
2018-02-27T00:06:36.836Z,25.62
2018-02-27T00:09:04.383Z,27.20
2018-02-27T00:11:31.901Z,25.23
2018-02-27T00:13:59.410Z,17.00
2018-02-27T00:16:26.969Z,20.83
2018-02-27T00:18:54.500Z,23.23
2018-02-27T00:21:22.021Z,21.85
2018-02-27T00:23:49.541Z,8.93
2018-02-27T00:26:17.046Z,7.93
2018-02-27T00:28:44.561Z,14.43
2018-02-27T00:31:12.116Z,15.65
2018-02-27T00:33:39.647Z,12.80
2018-02-27T00:36:07.162Z,7.03
2018-02-27T00:38:34.717Z,12.32
2018-02-27T00:41:02.245Z,24.95
2018-02-27T00:43:29.769Z,6.60
2018-02-27T00:45:57.316Z,18.23
2018-02-27T00:48:24.827Z,11.60
2018-02-27T00:50:52.352Z,19.50
2018-02-27T00:53:19.908Z,17.58
2018-02-27T00:55:47.436Z,16.42
2018-02-27T00:58:14.945Z,14.30
2018-02-27T01:00:42.519Z,17.67
2018-02-27T01:03:10.139Z,21.67
2018-02-27T01:05:37.662Z,16.90
2018-02-27T01:08:05.222Z,21.05
2018-02-27T01:10:32.794Z,14.63
2018-02-27T01:13:00.317Z,7.75
2018-02-27T01:15:27.873Z,19.70
2018-02-27T01:17:55.398Z,14.18
2018-02-27T01:20:22.906Z,18.35
2018-02-27T01:22:50.425Z,9.27
2018-02-27T01:25:17.960Z,8.90
2018-02-27T01:27:45.469Z,17.62
2018-02-27T01:30:13.077Z,20.80
2018-02-27T01:32:40.608Z,21.12
2018-02-27T01:35:08.149Z,25.52
2018-02-27T01:37:35.700Z,11.07
2018-02-27T01:40:03.212Z,7.82
2018-02-27T01:42:30.737Z,15.57
2018-02-27T01:44:58.272Z,20.48
2018-02-27T01:47:25.786Z,22.95
2018-02-27T01:49:53.314Z,15.82
2018-02-27T01:52:20.876Z,9.98
2018-02-27T01:54:48.433Z,18.90
2018-02-27T01:57:15.937Z,21.95
2018-02-27T01:59:43.485Z,22.52
2018-02-27T02:02:11.074Z,25.73
2018-02-27T02:04:38.660Z,13.52
2018-02-27T02:07:06.183Z,13.80
2018-02-27T02:09:33.745Z,16.33
2018-02-27T02:12:01.268Z,21.30
2018-02-27T02:14:28.786Z,12.00
2018-02-27T02:16:56.338Z,16.62
2018-02-27T02:19:23.869Z,19.58
2018-02-27T02:21:51.757Z,9.32
2018-02-27T02:24:19.311Z,21.15
2018-02-27T02:26:46.854Z,13.18
2018-02-27T02:29:14.384Z,16.23
2018-02-27T02:31:41.923Z,21.48
2018-02-27T02:34:09.451Z,17.60
2018-02-27T02:36:36.967Z,11.88
2018-02-27T02:39:04.526Z,17.37
2018-02-27T02:41:32.044Z,17.92
2018-02-27T02:43:59.551Z,14.40
2018-02-27T02:46:27.090Z,20.95
2018-02-27T02:48:54.661Z,17.75
2018-02-27T02:51:22.203Z,21.95
2018-02-27T02:53:49.726Z,19.35
2018-02-27T02:56:17.252Z,16.58
2018-02-27T02:58:44.782Z,24.20
2018-02-27T03:01:12.319Z,18.10
2018-02-27T03:03:39.838Z,12.45
2018-02-27T03:06:07.364Z,15.60
2018-02-27T03:08:34.898Z,23.02
2018-02-27T03:11:02.432Z,18.33
2018-02-27T03:13:29.967Z,20.50
2018-02-27T03:15:57.510Z,16.20
2018-02-27T03:18:25.017Z,16.35
2018-02-27T03:20:52.548Z,18.75
2018-02-27T03:23:20.090Z,18.48
2018-02-27T03:25:47.602Z,21.65
2018-02-27T03:28:15.169Z,17.65
2018-02-27T03:30:42.746Z,18.37
2018-02-27T03:33:10.249Z,16.75
2018-02-27T03:35:37.755Z,19.17
2018-02-27T03:38:05.294Z,23.73
2018-02-27T03:40:33.554Z,25.23
2018-02-27T03:43:01.119Z,18.95
2018-02-27T03:45:28.676Z,18.25
2018-02-27T03:50:44.019Z,24.30
2018-02-27T03:53:12.123Z,22.05
2018-02-27T03:55:39.638Z,21.02
2018-02-27T03:58:07.170Z,13.18
2018-02-27T04:00:36.166Z,16.62
2018-02-27T04:03:03.724Z,11.75
2018-02-27T04:05:31.265Z,19.30
2018-02-27T04:07:58.819Z,20.40
2018-02-27T04:10:26.361Z,20.98
2018-02-27T04:12:53.889Z,21.50
2018-02-27T04:15:21.426Z,21.25
2018-02-27T04:17:48.945Z,20.83
2018-02-27T04:20:16.458Z,18.40
2018-02-27T04:22:44.005Z,17.50
2018-02-27T04:25:11.505Z,12.43
2018-02-27T04:27:39.029Z,10.02
2018-02-27T04:30:06.693Z,19.10
2018-02-27T04:32:34.214Z,18.27
2018-02-27T04:35:01.736Z,18.35
2018-02-27T04:37:29.273Z,19.85
2018-02-27T04:39:56.790Z,17.33
2018-02-27T04:42:24.297Z,15.60
2018-02-27T04:44:51.839Z,24.35
2018-02-27T04:47:19.365Z,21.65
2018-02-27T04:49:46.889Z,20.33
2018-02-27T04:52:14.428Z,18.25
2018-02-27T04:54:42.064Z,20.92
2018-02-27T04:57:09.584Z,26.52
2018-02-27T04:59:37.114Z,23.23
2018-02-27T05:02:04.676Z,22.10
2018-02-27T05:04:32.199Z,27.02
2018-02-27T05:06:59.988Z,20.37
2018-02-27T05:09:27.532Z,23.15
2018-02-27T05:11:55.082Z,23.17
2018-02-27T05:14:22.601Z,25.80
2018-02-27T05:16:50.158Z,20.17
2018-02-27T05:19:17.681Z,22.05
2018-02-27T05:21:45.211Z,43.20
2018-02-27T05:24:13.260Z,35.83
2018-02-27T05:26:40.788Z,39.13
2018-02-27T05:29:08.301Z,33.20
2018-02-27T05:31:35.854Z,30.23
2018-02-27T05:34:03.371Z,26.17
2018-02-27T05:36:30.903Z,22.92
2018-02-27T05:38:58.501Z,36.30
2018-02-27T05:41:26.340Z,27.92
2018-02-27T05:43:53.886Z,28.77
2018-02-27T05:46:21.425Z,24.23
2018-02-27T05:48:48.948Z,26.75
2018-02-27T05:51:16.470Z,26.45
2018-02-27T05:53:44.013Z,30.62
2018-02-27T05:56:11.539Z,29.92
2018-02-27T05:58:39.053Z,30.12
2018-02-27T06:01:06.585Z,25.88
2018-02-27T06:03:34.110Z,29.77
2018-02-27T06:06:01.649Z,28.92
2018-02-27T06:08:29.223Z,30.30
2018-02-27T06:10:56.955Z,31.92
2018-02-27T06:13:24.463Z,37.03
2018-02-27T06:15:52.034Z,35.22
2018-02-27T06:18:19.536Z,34.47
2018-02-27T06:20:47.062Z,40.67
2018-02-27T06:23:14.602Z,43.53
2018-02-27T06:25:42.118Z,39.08
2018-02-27T06:28:09.648Z,40.22
2018-02-27T06:30:37.231Z,36.85
2018-02-27T06:33:04.776Z,35.95
2018-02-27T06:35:32.292Z,39.97
2018-02-27T06:37:59.840Z,35.45
2018-02-27T06:40:27.350Z,31.00
2018-02-27T06:42:55.013Z,34.88
2018-02-27T06:45:22.548Z,29.12
2018-02-27T06:47:50.101Z,30.45
2018-02-27T06:50:17.625Z,34.10
2018-02-27T06:52:45.297Z,39.05
2018-02-27T06:55:12.815Z,30.15
2018-02-27T06:57:40.366Z,43.28
2018-02-27T07:00:07.910Z,34.05
2018-02-27T07:02:35.443Z,23.52
2018-02-27T07:05:02.958Z,29.10
2018-02-27T07:07:30.517Z,27.95
2018-02-27T07:09:58.045Z,29.23
2018-02-27T07:12:25.552Z,33.38
2018-02-27T07:14:53.076Z,29.65
2018-02-27T07:17:20.608Z,36.17
2018-02-27T07:19:48.116Z,36.67
2018-02-27T07:22:15.683Z,34.20
2018-02-27T07:24:43.246Z,43.47
2018-02-27T07:27:10.770Z,40.40
2018-02-27T07:29:38.310Z,39.22
2018-02-27T07:32:05.844Z,43.45
2018-02-27T07:34:33.352Z,32.45
2018-02-27T07:37:00.866Z,22.45
2018-02-27T07:39:28.421Z,24.92
2018-02-27T07:41:55.924Z,22.98
2018-02-27T07:44:23.433Z,25.40
2018-02-27T07:46:50.958Z,26.65
2018-02-27T07:49:18.492Z,27.37
2018-02-27T07:51:46.023Z,31.05
2018-02-27T07:54:13.556Z,28.60
2018-02-27T07:56:41.163Z,27.83
2018-02-27T07:59:08.686Z,30.98
2018-02-27T08:01:36.226Z,27.58
2018-02-27T08:04:03.818Z,27.90
2018-02-27T08:06:31.335Z,31.40
2018-02-27T08:08:58.864Z,30.73
2018-02-27T08:11:26.439Z,31.37
2018-02-27T08:13:53.972Z,32.63
2018-02-27T08:16:21.514Z,34.95
2018-02-27T08:18:49.049Z,28.95
2018-02-27T08:21:16.586Z,28.38
2018-02-27T08:23:44.123Z,30.88
2018-02-27T08:26:11.637Z,27.33
2018-02-27T08:28:39.224Z,31.40
2018-02-27T08:31:06.737Z,32.33
2018-02-27T08:33:34.249Z,35.03
2018-02-27T08:36:01.777Z,36.78
2018-02-27T08:38:29.351Z,37.63
2018-02-27T08:40:56.864Z,31.25
2018-02-27T08:43:24.444Z,28.45
2018-02-27T08:45:51.993Z,30.90
2018-02-27T08:48:19.506Z,27.48
2018-02-27T08:50:47.026Z,28.45
2018-02-27T08:53:14.569Z,29.65
2018-02-27T08:55:42.113Z,28.50
2018-02-27T08:58:09.630Z,39.05
2018-02-27T09:00:37.184Z,43.63
2018-02-27T09:03:04.725Z,42.30
2018-02-27T09:05:32.414Z,47.13
2018-02-27T09:07:59.980Z,54.78
2018-02-27T09:10:27.511Z,61.92
2018-02-27T09:12:55.027Z,112.03
2018-02-27T09:15:22.573Z,60.80
2018-02-27T09:17:50.116Z,63.58
2018-02-27T09:20:17.655Z,63.22
2018-02-27T09:22:45.242Z,57.47
2018-02-27T09:25:12.789Z,59.92
2018-02-27T09:27:40.324Z,58.87
2018-02-27T09:30:08.020Z,45.83
2018-02-27T09:32:35.542Z,44.33
2018-02-27T09:35:03.113Z,42.42
2018-02-27T09:37:30.709Z,51.22
2018-02-27T09:39:58.210Z,53.05
2018-02-27T09:42:25.740Z,46.03
2018-02-27T09:44:53.533Z,45.73
2018-02-27T09:47:21.076Z,44.23
2018-02-27T09:49:48.617Z,45.73
2018-02-27T09:52:16.208Z,43.90
2018-02-27T09:54:43.720Z,51.30
2018-02-27T09:57:11.241Z,43.07
2018-02-27T09:59:38.793Z,45.17
2018-02-27T10:02:06.449Z,46.77
2018-02-27T10:04:33.973Z,48.50
2018-02-27T10:07:01.504Z,57.20
2018-02-27T10:09:29.056Z,40.10
2018-02-27T10:11:56.586Z,38.97
2018-02-27T10:14:24.108Z,45.33
2018-02-27T10:16:51.672Z,44.03
2018-02-27T10:19:19.238Z,46.20
2018-02-27T10:21:46.787Z,41.90
2018-02-27T10:24:14.353Z,43.27
2018-02-27T10:26:41.883Z,49.43
2018-02-27T10:29:09.417Z,50.13
2018-02-27T10:31:37.004Z,39.70
2018-02-27T10:34:04.641Z,42.93
2018-02-27T10:36:32.169Z,38.63
2018-02-27T10:38:59.741Z,43.03
2018-02-27T10:41:27.271Z,34.97
2018-02-27T10:43:54.802Z,42.17
2018-02-27T10:46:22.389Z,37.37
2018-02-27T10:48:49.909Z,42.30
2018-02-27T10:51:17.460Z,37.30
2018-02-27T10:53:45.005Z,33.10
2018-02-27T10:56:12.527Z,35.80
2018-02-27T10:58:40.037Z,32.57
2018-02-27T11:01:24.085Z,32.60
2018-02-27T11:03:51.631Z,40.53
2018-02-27T11:06:19.151Z,30.73
2018-02-27T11:08:46.700Z,37.70
2018-02-27T11:11:14.521Z,33.00
2018-02-27T11:13:42.049Z,31.27
2018-02-27T11:16:09.586Z,31.30
2018-02-27T11:18:37.124Z,42.70
2018-02-27T11:21:04.645Z,33.70
2018-02-27T11:23:32.186Z,34.77
2018-02-27T11:25:59.688Z,37.30
2018-02-27T11:28:27.198Z,29.03
2018-02-27T11:30:54.768Z,26.20
2018-02-27T11:33:22.291Z,25.50
2018-02-27T11:35:49.805Z,25.43
2018-02-27T11:38:17.351Z,24.50
2018-02-27T11:40:44.886Z,28.97
2018-02-27T11:43:12.415Z,35.07
2018-02-27T11:45:39.981Z,34.27
2018-02-27T11:48:07.512Z,30.33
2018-02-27T11:50:35.049Z,38.17
2018-02-27T11:53:02.637Z,32.70
2018-02-27T11:55:30.741Z,34.37
2018-02-27T11:57:58.265Z,29.50
2018-02-27T12:00:25.819Z,26.90
2018-02-27T12:02:53.330Z,31.83
2018-02-27T12:05:20.984Z,30.80
2018-02-27T12:07:48.624Z,25.20
2018-02-27T12:10:16.218Z,26.97
2018-02-27T12:12:43.750Z,32.80
2018-02-27T12:15:11.312Z,28.13
2018-02-27T12:17:38.880Z,25.63
2018-02-27T12:20:06.579Z,28.37
2018-02-27T12:22:34.180Z,28.07
2018-02-27T12:25:01.761Z,28.50
2018-02-27T12:27:29.313Z,24.90
2018-02-27T12:29:56.907Z,28.43
2018-02-27T12:32:24.441Z,23.10
2018-02-27T12:34:51.986Z,29.43
2018-02-27T12:37:19.496Z,32.33
2018-02-27T12:39:47.037Z,28.83
2018-02-27T12:42:14.556Z,31.73
2018-02-27T12:44:42.334Z,25.20
2018-02-27T12:47:09.952Z,32.07
2018-02-27T12:49:37.493Z,27.87
2018-02-27T12:52:05.025Z,27.13
2018-02-27T12:54:32.792Z,30.27
2018-02-27T12:57:00.788Z,28.90
2018-02-27T12:59:28.576Z,24.70
2018-02-27T13:01:56.145Z,33.27
2018-02-27T13:04:23.791Z,29.73
2018-02-27T13:06:51.334Z,35.60
2018-02-27T13:09:18.996Z,33.93
2018-02-27T13:11:46.986Z,41.53
2018-02-27T13:14:15.125Z,33.10
2018-02-27T13:16:42.718Z,29.27
2018-02-27T13:19:10.255Z,26.17
2018-02-27T13:21:37.866Z,26.70
2018-02-27T13:24:07.043Z,26.30
2018-02-27T13:26:34.622Z,23.73
2018-02-27T13:29:02.188Z,21.83
2018-02-27T13:31:29.825Z,26.50
2018-02-27T13:33:57.358Z,28.30
2018-02-27T13:36:24.915Z,31.47
2018-02-27T13:38:52.480Z,29.83
2018-02-27T13:41:19.988Z,30.83
2018-02-27T13:43:47.509Z,33.73
2018-02-27T13:46:15.037Z,32.93
2018-02-27T13:48:45.911Z,31.20
2018-02-27T13:51:10.106Z,29.87
2018-02-27T13:53:37.654Z,25.97
2018-02-27T13:56:05.176Z,32.93
2018-02-27T13:58:32.741Z,31.43
2018-02-27T14:01:00.355Z,29.70
2018-02-27T14:03:27.899Z,30.50
2018-02-27T14:05:55.507Z,39.57
2018-02-27T14:08:23.161Z,34.70
2018-02-27T14:10:50.705Z,49.13
2018-02-27T14:13:18.237Z,41.80
2018-02-27T14:15:45.821Z,35.10
2018-02-27T14:18:13.345Z,44.70
2018-02-27T14:20:40.861Z,53.27
2018-02-27T14:23:08.431Z,55.57
2018-02-27T14:25:35.977Z,41.97
2018-02-27T14:28:03.515Z,51.23
2018-02-27T14:30:31.058Z,56.17
2018-02-27T14:32:58.575Z,73.43
2018-02-27T14:35:26.095Z,68.37
2018-02-27T14:37:53.653Z,67.53
2018-02-27T14:40:21.193Z,57.80
2018-02-27T14:42:49.628Z,58.70
2018-02-27T14:45:18.134Z,51.50
2018-02-27T14:47:45.656Z,60.20
2018-02-27T14:50:13.165Z,57.63
2018-02-27T14:52:41.099Z,65.20
2018-02-27T14:55:08.878Z,62.73
2018-02-27T14:57:36.683Z,73.10
2018-02-27T15:00:08.024Z,73.70
2018-02-27T15:02:35.534Z,69.77
2018-02-27T15:05:03.153Z,55.43
2018-02-27T15:07:31.449Z,61.00
2018-02-27T15:09:58.986Z,45.50
2018-02-27T15:12:27.533Z,44.50
2018-02-27T15:14:55.125Z,43.43
2018-02-27T15:17:24.164Z,54.70
2018-02-27T15:19:51.681Z,47.37
2018-02-27T15:22:19.384Z,43.03
2018-02-27T15:24:46.928Z,45.33
2018-02-27T15:27:14.473Z,39.53
2018-02-27T15:29:42.018Z,38.57
2018-02-27T15:32:09.580Z,49.05
2018-02-27T15:34:37.113Z,46.93
2018-02-27T15:37:04.656Z,56.65
2018-02-27T15:39:32.667Z,45.70
2018-02-27T15:42:00.206Z,38.93
2018-02-27T15:44:27.901Z,46.63
2018-02-27T15:46:55.489Z,51.07
2018-02-27T15:49:23.280Z,51.33
2018-02-27T15:51:50.794Z,55.73
2018-02-27T15:54:18.345Z,59.27
2018-02-27T15:56:45.883Z,58.27
2018-02-27T15:59:13.438Z,53.10
2018-02-27T16:01:40.995Z,54.77
2018-02-27T16:04:08.533Z,25.87
2018-02-27T16:06:36.128Z,37.15
2018-02-27T16:09:03.716Z,27.40
2018-02-27T16:11:31.249Z,30.03
2018-02-27T16:13:59.426Z,29.90
2018-02-27T16:16:33.477Z,23.17
2018-02-27T16:19:01.086Z,25.77
2018-02-27T16:21:28.677Z,23.20
2018-02-27T16:23:56.258Z,24.45
2018-02-27T16:26:23.951Z,31.87
2018-02-27T16:28:51.521Z,31.35
2018-02-27T16:31:19.094Z,27.83
2018-02-27T16:33:46.652Z,29.90
2018-02-27T16:36:14.193Z,30.05
2018-02-27T16:38:42.189Z,23.02
2018-02-27T16:41:09.847Z,28.65
2018-02-27T16:43:37.393Z,26.20
2018-02-27T16:46:06.014Z,25.90
2018-02-27T16:48:33.581Z,27.13
2018-02-27T16:51:01.215Z,27.08
2018-02-27T16:53:28.799Z,28.20
2018-02-27T16:55:56.341Z,28.35
2018-02-27T16:58:23.871Z,31.80
2018-02-27T17:00:51.412Z,37.65
2018-02-27T17:03:18.981Z,33.10
2018-02-27T17:05:46.524Z,27.30
2018-02-27T17:08:14.978Z,28.80
2018-02-27T17:10:42.501Z,28.23
2018-02-27T17:13:10.026Z,27.55
2018-02-27T17:15:37.589Z,27.30
2018-02-27T17:18:05.270Z,34.97
2018-02-27T17:20:32.862Z,33.75
2018-02-27T17:23:00.701Z,35.90
2018-02-27T17:25:28.217Z,32.70
2018-02-27T17:27:55.790Z,28.45
2018-02-27T17:30:23.385Z,28.38
2018-02-27T17:32:50.926Z,23.00
2018-02-27T17:35:18.458Z,30.23
2018-02-27T17:37:46.070Z,26.30
2018-02-27T17:40:13.654Z,29.12
2018-02-27T17:42:41.169Z,22.23
2018-02-27T17:45:08.714Z,25.25
2018-02-27T17:47:36.325Z,20.30
2018-02-27T17:50:03.873Z,23.77
2018-02-27T17:52:31.433Z,21.95
2018-02-27T17:54:59.862Z,17.42
2018-02-27T17:57:27.428Z,25.58
2018-02-27T17:59:54.992Z,16.80
2018-02-27T18:02:23.446Z,17.90
2018-02-27T18:04:51.003Z,22.58
2018-02-27T18:07:18.589Z,22.17
2018-02-27T18:09:46.255Z,19.15
2018-02-27T18:12:13.789Z,18.92
2018-02-27T18:14:41.565Z,22.92
2018-02-27T18:17:09.586Z,22.13
2018-02-27T18:19:37.117Z,19.70
2018-02-27T18:22:05.117Z,19.67
2018-02-27T18:24:32.746Z,17.10
2018-02-27T18:27:00.318Z,19.50
2018-02-27T18:29:27.874Z,27.95
2018-02-27T18:31:56.269Z,17.02
2018-02-27T18:34:23.974Z,16.75
2018-02-27T18:36:52.283Z,35.70
2018-02-27T18:39:20.756Z,15.27
2018-02-27T18:41:48.346Z,23.00
2018-02-27T18:44:15.986Z,36.70
2018-02-27T18:46:43.537Z,26.90
2018-02-27T18:49:11.109Z,17.02
2018-02-27T18:51:38.690Z,17.17
2018-02-27T18:54:06.231Z,21.35
2018-02-27T18:56:33.807Z,50.15
2018-02-27T18:59:01.390Z,47.80
2018-02-27T19:01:29.087Z,28.10
2018-02-27T19:03:56.662Z,28.05
2018-02-27T19:06:24.218Z,20.17
2018-02-27T19:08:52.034Z,31.67
2018-02-27T19:11:19.672Z,27.10
2018-02-27T19:13:47.242Z,25.55
2018-02-27T19:16:14.833Z,19.90
2018-02-27T19:18:42.450Z,18.30
2018-02-27T19:21:09.984Z,30.02
2018-02-27T19:23:37.562Z,17.37
2018-02-27T19:26:05.147Z,16.02
2018-02-27T19:28:33.253Z,24.50
2018-02-27T19:31:00.809Z,22.50
2018-02-27T19:33:28.413Z,20.92
2018-02-27T19:35:56.111Z,21.77
2018-02-27T19:38:23.696Z,15.88
2018-02-27T19:40:51.249Z,30.73
2018-02-27T19:43:18.805Z,20.02
2018-02-27T19:45:46.377Z,14.48
2018-02-27T19:48:13.961Z,15.68
2018-02-27T19:50:42.499Z,8.50
2018-02-27T19:53:10.106Z,14.43
2018-02-27T19:55:37.711Z,13.38
2018-02-27T19:58:05.648Z,16.10
2018-02-27T20:00:34.218Z,8.20
2018-02-27T20:03:02.640Z,13.02
2018-02-27T20:05:30.174Z,17.05
2018-02-27T20:07:58.392Z,19.00
2018-02-27T20:10:25.971Z,10.25
2018-02-27T20:12:53.560Z,16.95
2018-02-27T20:15:21.167Z,14.63
2018-02-27T20:17:54.206Z,7.43
2018-02-27T20:20:21.906Z,18.35
2018-02-27T20:22:54.998Z,20.42
2018-02-27T20:25:22.573Z,11.43
2018-02-27T20:27:50.129Z,15.20
2018-02-27T20:30:17.704Z,18.48
2018-02-27T20:32:46.066Z,17.33
2018-02-27T20:35:13.607Z,12.32
2018-02-27T20:37:41.186Z,26.27
2018-02-27T20:40:08.746Z,14.50
2018-02-27T20:42:36.295Z,13.95
2018-02-27T20:45:03.854Z,14.75
2018-02-27T20:47:31.407Z,9.75
2018-02-27T20:49:58.941Z,21.60
2018-02-27T20:52:26.526Z,14.50
2018-02-27T20:54:54.111Z,13.98
2018-02-27T20:57:21.667Z,19.87
2018-02-27T20:59:49.243Z,19.60
2018-02-27T21:02:16.844Z,17.23
2018-02-27T21:04:44.423Z,9.85
2018-02-27T21:07:12.031Z,6.97
2018-02-27T21:09:39.595Z,28.20
2018-02-27T21:12:07.160Z,13.50
2018-02-27T21:14:34.719Z,9.75
2018-02-27T21:17:02.339Z,7.20
2018-02-27T21:19:29.912Z,7.18
2018-02-27T21:21:57.490Z,10.63
2018-02-27T21:24:25.195Z,10.05
2018-02-27T21:26:52.762Z,12.90
2018-02-27T21:29:20.327Z,7.12
2018-02-27T21:31:47.910Z,7.70
2018-02-27T21:34:15.450Z,3.90
2018-02-27T21:36:42.996Z,6.07
2018-02-27T21:39:10.579Z,9.95
2018-02-27T21:41:38.897Z,12.52
2018-02-27T21:44:06.470Z,5.65
2018-02-27T21:46:34.081Z,4.05
2018-02-27T21:49:01.793Z,6.22
2018-02-27T21:51:29.376Z,9.98
2018-02-27T21:53:57.262Z,5.50
2018-02-27T21:56:24.826Z,3.97
2018-02-27T21:58:52.376Z,5.87
2018-02-27T22:01:20.073Z,11.60
2018-02-27T22:03:47.611Z,4.65
2018-02-27T22:06:15.178Z,6.82
2018-02-27T22:08:42.783Z,6.75
2018-02-27T22:11:10.330Z,5.37
2018-02-27T22:13:37.842Z,5.85
2018-02-27T22:16:05.453Z,2.67
2018-02-27T22:18:32.999Z,3.97
2018-02-27T22:21:00.561Z,6.65
2018-02-27T22:23:28.154Z,6.95
2018-02-27T22:25:55.711Z,3.22
2018-02-27T22:28:23.296Z,3.72
2018-02-27T22:30:51.188Z,7.47
2018-02-27T22:33:18.746Z,3.42
2018-02-27T22:35:46.291Z,5.43
2018-02-27T22:38:13.866Z,5.72
2018-02-27T22:40:41.393Z,3.85
2018-02-27T22:43:09.002Z,4.30
2018-02-27T22:45:36.615Z,5.93
2018-02-27T22:48:04.164Z,3.80
2018-02-27T22:50:31.719Z,11.60
2018-02-27T22:52:59.336Z,10.50
2018-02-27T22:55:26.855Z,9.65
2018-02-27T22:57:54.488Z,5.15
2018-02-27T23:00:33.802Z,5.30
2018-02-27T23:03:01.332Z,6.70
2018-02-27T23:05:28.917Z,4.90
2018-02-27T23:07:56.516Z,9.40
2018-02-27T23:10:24.072Z,3.10
2018-02-27T23:12:51.614Z,4.55
2018-02-27T23:15:19.250Z,6.03
2018-02-27T23:17:46.763Z,3.28
2018-02-27T23:20:14.387Z,2.47
2018-02-27T23:22:42.057Z,8.30
2018-02-27T23:25:21.791Z,4.50
2018-02-27T23:27:52.735Z,4.00
2018-02-27T23:30:20.690Z,10.63
2018-02-27T23:32:49.993Z,7.90
2018-02-27T23:35:25.708Z,4.28
2018-02-27T23:37:53.291Z,13.60
2018-02-27T23:40:20.819Z,6.78
2018-02-27T23:42:48.366Z,5.22
2018-02-27T23:45:15.928Z,11.93
2018-02-27T23:47:43.820Z,8.32
2018-02-27T23:50:11.395Z,6.40
2018-02-27T23:52:39.042Z,8.52
2018-02-27T23:55:06.687Z,5.10
2018-02-27T23:57:34.317Z,9.00
